Time;durP1;ratioP1;P1;durP2;ratioP2;P2;SDS_P1;SDS_P2;PMS_P1;PMS_P2;Temp;Humidity;BMP_temperature;BMP_pressure;BME280_temperature;BME280_humidity;BME280_pressure;Samples;Min_cycle;Max_cycle;Signal;HPM_P1;HPM_P2
2021/11/16 00:01:26;;;;;;;29.53;18.10;;;10.90;99.90;;;;;;5022782;28;20444;-56
2021/11/16 00:03:55;;;;;;;33.27;18.73;;;10.80;99.90;;;;;;5022620;28;21204;-57
2021/11/16 00:06:22;;;;;;;27.27;17.90;;;10.90;99.90;;;;;;5022489;28;20438;-57
2021/11/16 00:08:48;;;;;;;28.00;18.40;;;11.00;99.90;;;;;;5024125;28;20458;-55
2021/11/16 00:11:14;;;;;;;33.00;18.80;;;11.00;99.90;;;;;;5019572;28;20459;-53
2021/11/16 00:13:41;;;;;;;30.43;18.47;;;11.00;99.90;;;;;;5019463;28;20628;-56
2021/11/16 00:16:07;;;;;;;27.83;18.10;;;11.00;99.90;;;;;;5020808;28;20522;-55
2021/11/16 00:18:33;;;;;;;37.03;18.73;;;10.90;99.90;;;;;;5022741;28;20439;-53
2021/11/16 00:20:59;;;;;;;30.97;17.30;;;10.90;99.90;;;;;;5020392;28;20426;-52
2021/11/16 00:23:33;;;;;;;31.17;17.13;;;10.90;99.90;;;;;;5022684;28;20588;-55
2021/11/16 00:26:00;;;;;;;30.90;18.23;;;10.90;99.90;;;;;;5022771;28;20435;-54
2021/11/16 00:28:26;;;;;;;31.60;18.67;;;11.00;99.90;;;;;;5021620;28;20428;-53
2021/11/16 00:30:55;;;;;;;30.27;17.23;;;11.00;99.90;;;;;;5021372;28;20985;-55
2021/11/16 00:33:22;;;;;;;29.23;18.63;;;11.00;99.90;;;;;;5021416;28;20227;-56
2021/11/16 00:35:49;;;;;;;31.17;17.30;;;10.60;99.90;;;;;;5021628;28;20571;-55
2021/11/16 00:38:16;;;;;;;31.27;17.97;;;10.60;99.90;;;;;;5019204;28;20467;-56
2021/11/16 00:40:43;;;;;;;30.17;18.47;;;10.40;99.90;;;;;;5020068;28;20853;-55
2021/11/16 00:43:09;;;;;;;26.60;17.13;;;10.50;99.90;;;;;;5021968;28;20490;-57
2021/11/16 00:45:37;;;;;;;26.80;17.93;;;10.10;99.90;;;;;;5020614;28;20490;-56
2021/11/16 00:48:04;;;;;;;29.50;18.10;;;10.30;99.90;;;;;;5020657;28;20193;-57
2021/11/16 00:50:31;;;;;;;30.17;19.27;;;10.60;99.90;;;;;;5020095;28;21006;-55
2021/11/16 00:52:57;;;;;;;28.13;17.50;;;10.30;99.90;;;;;;5023029;28;20451;-54
2021/11/16 00:55:22;;;;;;;32.57;17.00;;;10.20;99.90;;;;;;5020558;28;20966;-57
2021/11/16 00:57:48;;;;;;;29.83;17.93;;;10.20;99.90;;;;;;5018823;28;20609;-57
2021/11/16 01:00:17;;;;;;;34.83;18.83;;;10.40;99.90;;;;;;5018036;28;20181;-55
2021/11/16 01:02:44;;;;;;;28.80;18.40;;;10.10;99.90;;;;;;5014211;28;20290;-56
2021/11/16 01:05:12;;;;;;;29.43;17.50;;;10.30;99.90;;;;;;5021989;28;20916;-57
2021/11/16 01:07:40;;;;;;;27.37;17.80;;;10.50;99.90;;;;;;5021173;28;20808;-57
2021/11/16 01:10:07;;;;;;;30.53;18.40;;;10.70;99.90;;;;;;5019981;28;20458;-58
2021/11/16 01:12:33;;;;;;;25.80;18.53;;;10.70;99.90;;;;;;5019785;28;20552;-56
2021/11/16 01:14:59;;;;;;;28.53;18.50;;;10.70;99.90;;;;;;5020058;28;21222;-57
2021/11/16 01:17:24;;;;;;;30.27;19.40;;;10.60;99.90;;;;;;5020629;28;20223;-57
2021/11/16 01:19:50;;;;;;;32.00;19.37;;;10.20;99.90;;;;;;5022103;28;20192;-52
2021/11/16 01:22:17;;;;;;;29.67;18.10;;;10.30;99.90;;;;;;5020348;28;20196;-53
2021/11/16 01:24:43;;;;;;;30.50;19.33;;;10.20;99.90;;;;;;5020200;28;20863;-57
2021/11/16 01:27:12;;;;;;;28.97;17.63;;;10.30;99.90;;;;;;5019859;28;20489;-57
2021/11/16 01:29:40;;;;;;;32.00;19.23;;;10.40;99.90;;;;;;5018610;28;20496;-57
2021/11/16 01:32:13;;;;;;;32.37;18.80;;;10.30;99.90;;;;;;5019508;28;20474;-56
2021/11/16 01:34:46;;;;;;;32.47;19.50;;;10.30;99.90;;;;;;5018779;28;20451;-54
2021/11/16 01:37:14;;;;;;;32.83;18.63;;;10.10;99.90;;;;;;5015571;28;20811;-53
2021/11/16 01:39:40;;;;;;;29.40;19.20;;;9.80;99.90;;;;;;5019868;28;20439;-55
2021/11/16 01:42:07;;;;;;;27.93;18.20;;;10.00;99.90;;;;;;5017559;28;20439;-54
2021/11/16 01:44:32;;;;;;;29.97;17.20;;;10.00;99.90;;;;;;5021197;28;21085;-55
2021/11/16 01:46:58;;;;;;;34.37;19.20;;;9.90;99.90;;;;;;5019551;28;20448;-54
2021/11/16 01:49:24;;;;;;;30.77;18.10;;;9.90;99.90;;;;;;5021889;28;20192;-55
2021/11/16 01:51:50;;;;;;;29.37;18.07;;;9.80;99.90;;;;;;5018035;28;20778;-55
2021/11/16 01:54:15;;;;;;;35.33;19.57;;;9.70;99.90;;;;;;5019447;28;20686;-57
2021/11/16 01:56:45;;;;;;;32.33;19.60;;;9.70;99.90;;;;;;5018886;28;20208;-55
2021/11/16 01:59:12;;;;;;;36.17;18.30;;;9.70;99.90;;;;;;5018512;28;20193;-55
2021/11/16 02:01:40;;;;;;;37.50;19.23;;;9.70;99.90;;;;;;5020298;28;20447;-53
2021/11/16 02:04:08;;;;;;;28.43;17.90;;;9.70;99.90;;;;;;5022607;28;20467;-54
2021/11/16 02:06:36;;;;;;;26.90;16.10;;;9.70;99.90;;;;;;5024074;28;20929;-56
2021/11/16 02:09:07;;;;;;;29.63;17.13;;;10.10;99.90;;;;;;5023094;28;20451;-56
2021/11/16 02:11:33;;;;;;;32.20;17.97;;;9.80;99.90;;;;;;5024939;28;20553;-53
2021/11/16 02:13:59;;;;;;;28.50;17.20;;;9.90;99.90;;;;;;5024628;28;22110;-55
2021/11/16 02:16:25;;;;;;;29.37;17.20;;;9.80;99.90;;;;;;5024097;28;20428;-57
2021/11/16 02:18:51;;;;;;;31.53;17.27;;;9.80;99.90;;;;;;5025078;28;20637;-57
2021/11/16 02:21:18;;;;;;;35.33;18.40;;;9.70;99.90;;;;;;5026691;28;20961;-58
2021/11/16 02:23:44;;;;;;;34.43;18.40;;;9.60;99.90;;;;;;5021575;28;20463;-56
2021/11/16 02:26:12;;;;;;;29.23;17.53;;;9.50;99.90;;;;;;5022438;28;21187;-56
2021/11/16 02:28:41;;;;;;;26.67;16.23;;;9.70;99.90;;;;;;5015451;28;20207;-53
2021/11/16 02:31:06;;;;;;;29.63;16.87;;;9.80;99.90;;;;;;5019144;28;20471;-55
2021/11/16 02:33:32;;;;;;;27.17;16.60;;;9.70;99.90;;;;;;5024737;28;20864;-57
2021/11/16 02:35:58;;;;;;;31.17;18.60;;;9.80;99.90;;;;;;5023308;28;20184;-55
2021/11/16 02:38:24;;;;;;;30.80;17.33;;;9.80;99.90;;;;;;5022449;28;20447;-55
2021/11/16 02:40:52;;;;;;;28.37;16.03;;;9.90;99.90;;;;;;5021282;28;20453;-53
2021/11/16 02:43:18;;;;;;;29.10;16.43;;;9.70;99.90;;;;;;5020824;28;20458;-55
2021/11/16 02:45:44;;;;;;;26.47;15.90;;;9.60;99.90;;;;;;5024128;28;20439;-58
2021/11/16 02:48:13;;;;;;;28.43;16.00;;;9.70;99.90;;;;;;5022513;28;20447;-55
2021/11/16 02:50:40;;;;;;;28.53;16.17;;;10.10;99.90;;;;;;5022971;28;20188;-57
2021/11/16 02:53:06;;;;;;;33.27;18.83;;;10.20;99.90;;;;;;5024658;28;20447;-54
2021/11/16 02:55:32;;;;;;;32.17;17.93;;;10.30;99.90;;;;;;5021807;28;20443;-55
2021/11/16 02:57:58;;;;;;;27.80;15.90;;;10.10;99.90;;;;;;5022733;28;20481;-54
2021/11/16 03:00:24;;;;;;;24.70;16.67;;;10.00;99.90;;;;;;5024522;28;20243;-58
2021/11/16 03:02:50;;;;;;;34.33;18.20;;;9.70;99.90;;;;;;5023343;28;20231;-55
2021/11/16 03:05:16;;;;;;;31.00;17.87;;;9.70;99.90;;;;;;5017269;28;20236;-55
2021/11/16 03:07:55;;;;;;;28.70;17.83;;;9.60;99.90;;;;;;5022916;28;20513;-57
2021/11/16 03:10:29;;;;;;;31.13;18.00;;;9.90;99.90;;;;;;5019322;28;20615;-58
2021/11/16 03:12:55;;;;;;;31.87;19.27;;;9.90;99.90;;;;;;5022784;28;20451;-58
2021/11/16 03:15:20;;;;;;;31.83;18.13;;;9.70;99.90;;;;;;5023509;28;20467;-57
2021/11/16 03:17:47;;;;;;;27.23;17.63;;;9.60;99.90;;;;;;5020218;28;20423;-54
2021/11/16 03:20:15;;;;;;;26.23;15.67;;;9.60;99.90;;;;;;5023643;28;20590;-57
2021/11/16 03:22:53;;;;;;;32.77;18.37;;;9.60;99.90;;;;;;5023641;28;20894;-58
2021/11/16 03:25:25;;;;;;;34.87;19.87;;;9.70;99.90;;;;;;5022866;28;20434;-58
2021/11/16 03:27:55;;;;;;;30.27;18.67;;;9.60;99.90;;;;;;5021891;28;20525;-55
2021/11/16 03:30:22;;;;;;;29.00;16.40;;;9.30;99.90;;;;;;5020386;28;20931;-56
2021/11/16 03:32:48;;;;;;;31.50;17.43;;;9.70;99.90;;;;;;5022462;28;20455;-57
2021/11/16 03:35:14;;;;;;;26.87;15.57;;;10.00;99.90;;;;;;5020588;28;20814;-54
2021/11/16 03:37:44;;;;;;;30.33;17.77;;;10.20;99.90;;;;;;5021103;28;20184;-56
2021/11/16 03:40:11;;;;;;;30.50;18.47;;;10.30;99.90;;;;;;5021892;28;20439;-55
2021/11/16 03:42:49;;;;;;;31.77;17.60;;;10.40;99.90;;;;;;5022089;28;21013;-53
2021/11/16 03:45:17;;;;;;;32.53;18.90;;;10.50;99.90;;;;;;5020351;28;20444;-54
2021/11/16 03:47:44;;;;;;;35.63;17.80;;;10.30;99.90;;;;;;5021219;28;20813;-56
2021/11/16 03:50:14;;;;;;;30.60;17.03;;;10.20;99.90;;;;;;5019254;28;20435;-55
2021/11/16 03:52:42;;;;;;;28.53;16.80;;;10.20;99.90;;;;;;5020036;28;20473;-54
2021/11/16 03:55:11;;;;;;;27.30;17.63;;;10.00;99.90;;;;;;5018309;28;20526;-56
2021/11/16 03:57:37;;;;;;;29.80;17.60;;;9.90;99.90;;;;;;5021976;28;20439;-57
2021/11/16 04:00:16;;;;;;;27.80;16.70;;;10.10;99.90;;;;;;5020799;28;20539;-54
2021/11/16 04:02:42;;;;;;;29.00;16.60;;;9.90;99.90;;;;;;5020093;28;20928;-56
2021/11/16 04:05:08;;;;;;;28.40;16.60;;;10.20;99.90;;;;;;5020929;28;20935;-58
2021/11/16 04:07:33;;;;;;;30.97;17.40;;;10.00;99.90;;;;;;5018549;28;20490;-57
2021/11/16 04:09:59;;;;;;;35.20;18.03;;;10.10;99.90;;;;;;5018467;28;20529;-56
2021/11/16 04:12:26;;;;;;;35.80;18.77;;;10.00;99.90;;;;;;5019531;28;20338;-56
2021/11/16 04:14:52;;;;;;;28.20;17.27;;;9.70;99.90;;;;;;5020433;28;20188;-55
2021/11/16 04:17:17;;;;;;;27.10;16.93;;;9.80;99.90;;;;;;5021816;28;20529;-56
2021/11/16 04:19:43;;;;;;;30.40;17.00;;;10.10;99.90;;;;;;5021036;28;20482;-57
2021/11/16 04:22:10;;;;;;;31.73;17.80;;;9.90;99.90;;;;;;5021606;28;20192;-56
2021/11/16 04:24:36;;;;;;;30.80;17.63;;;10.10;99.90;;;;;;5019644;28;20245;-57
2021/11/16 04:27:02;;;;;;;30.60;17.60;;;10.20;99.90;;;;;;5021523;28;20466;-56
2021/11/16 04:29:28;;;;;;;34.07;19.33;;;10.10;99.90;;;;;;5020266;28;20931;-56
2021/11/16 04:31:53;;;;;;;38.07;18.73;;;10.10;99.90;;;;;;5019739;28;20627;-55
2021/11/16 04:34:19;;;;;;;33.97;18.37;;;10.00;99.90;;;;;;5019287;28;20224;-56
2021/11/16 04:36:45;;;;;;;31.53;17.10;;;9.60;99.90;;;;;;5018677;28;20200;-57
2021/11/16 04:39:10;;;;;;;30.70;17.17;;;9.40;99.90;;;;;;5022654;28;20196;-58
2021/11/16 04:41:37;;;;;;;31.63;18.77;;;9.40;99.90;;;;;;5020695;28;20192;-53
2021/11/16 04:44:06;;;;;;;29.90;19.10;;;9.30;99.90;;;;;;5020264;28;20257;-54
2021/11/16 04:46:32;;;;;;;33.23;19.03;;;9.70;99.90;;;;;;5022057;28;20816;-56
2021/11/16 04:49:05;;;;;;;26.73;15.93;;;10.00;99.90;;;;;;5015646;28;20444;-59
2021/11/16 04:51:44;;;;;;;33.07;18.00;;;10.10;99.90;;;;;;5021562;28;20219;-57
2021/11/16 05:04:51;;;;;;;28.97;17.20;;;10.40;99.90;;;;;;5019877;28;20514;-58
2021/11/16 05:07:18;;;;;;;29.43;16.93;;;10.40;99.90;;;;;;5019964;28;20466;-58
2021/11/16 05:09:51;;;;;;;35.10;18.10;;;10.50;99.90;;;;;;5021397;28;20987;-57
2021/11/16 05:12:18;;;;;;;31.13;18.77;;;10.50;99.90;;;;;;5017754;28;20474;-58
2021/11/16 05:14:43;;;;;;;32.73;16.77;;;10.50;99.90;;;;;;5018002;28;20847;-56
2021/11/16 05:17:09;;;;;;;38.53;19.83;;;10.40;99.90;;;;;;5019356;28;20432;-52
2021/11/16 05:19:35;;;;;;;29.60;18.10;;;10.30;99.90;;;;;;5017686;28;20209;-55
2021/11/16 05:22:01;;;;;;;29.97;17.00;;;10.30;99.90;;;;;;5019613;28;20746;-55
2021/11/16 05:24:27;;;;;;;35.40;19.00;;;10.40;99.90;;;;;;5021546;28;20441;-58
2021/11/16 05:26:53;;;;;;;31.13;17.30;;;10.40;99.90;;;;;;5019897;28;20822;-58
2021/11/16 05:29:19;;;;;;;30.70;16.60;;;10.30;99.90;;;;;;5018673;28;20180;-53
2021/11/16 05:31:45;;;;;;;33.03;19.07;;;10.10;99.90;;;;;;5019966;28;20471;-53
2021/11/16 05:34:11;;;;;;;30.10;19.33;;;9.80;99.90;;;;;;5019485;28;20964;-55
2021/11/16 05:36:36;;;;;;;37.90;18.70;;;9.70;99.90;;;;;;5019781;28;20303;-56
2021/11/16 05:39:04;;;;;;;35.60;19.77;;;9.70;99.90;;;;;;5018448;28;20439;-54
2021/11/16 05:41:29;;;;;;;30.40;17.57;;;9.60;99.90;;;;;;5014989;28;20611;-55
2021/11/16 05:43:55;;;;;;;36.23;19.23;;;9.50;99.90;;;;;;5031894;28;20454;-54
2021/11/16 05:46:22;;;;;;;36.63;18.00;;;9.70;99.90;;;;;;5020082;28;20196;-52
2021/11/16 05:48:50;;;;;;;32.97;18.77;;;9.90;99.90;;;;;;5020556;28;20517;-53
2021/11/16 05:51:17;;;;;;;36.13;19.27;;;9.90;99.90;;;;;;5020620;28;21006;-53
2021/11/16 05:53:45;;;;;;;35.47;20.80;;;9.70;99.90;;;;;;5019469;28;20468;-58
2021/11/16 05:56:12;;;;;;;33.43;19.07;;;9.60;99.90;;;;;;5018734;28;20427;-55
2021/11/16 05:58:43;;;;;;;37.60;20.30;;;9.60;99.90;;;;;;5019453;28;20474;-57
2021/11/16 06:01:09;;;;;;;28.53;16.50;;;9.70;99.90;;;;;;5018888;28;20435;-56
2021/11/16 06:03:35;;;;;;;36.10;20.33;;;9.70;99.90;;;;;;5017850;28;20496;-57
2021/11/16 06:06:01;;;;;;;34.67;17.43;;;9.70;99.90;;;;;;5019713;28;20496;-56
2021/11/16 06:08:28;;;;;;;32.60;16.60;;;9.90;99.90;;;;;;5021308;28;20928;-56
2021/11/16 06:10:56;;;;;;;29.60;16.73;;;10.00;99.90;;;;;;5020697;28;20204;-56
2021/11/16 06:13:23;;;;;;;34.93;19.23;;;10.00;99.90;;;;;;5021263;28;20526;-57
2021/11/16 06:15:49;;;;;;;36.27;18.53;;;9.80;99.90;;;;;;5018521;28;20522;-57
2021/11/16 06:18:18;;;;;;;35.60;17.63;;;9.80;99.90;;;;;;5022207;28;20522;-58
2021/11/16 06:20:46;;;;;;;33.30;18.30;;;9.80;99.90;;;;;;5020695;28;20450;-57
2021/11/16 06:23:11;;;;;;;33.70;18.00;;;10.00;99.90;;;;;;5018193;28;20546;-56
2021/11/16 06:25:39;;;;;;;33.70;18.47;;;10.10;99.90;;;;;;5021320;28;20427;-58
2021/11/16 06:28:05;;;;;;;41.93;18.30;;;10.10;99.90;;;;;;5019563;28;20244;-55
2021/11/16 06:30:31;;;;;;;33.30;18.07;;;9.90;99.90;;;;;;5016718;28;20460;-55
2021/11/16 06:32:57;;;;;;;30.17;16.40;;;9.90;99.90;;;;;;5018892;28;20506;-55
2021/11/16 06:35:22;;;;;;;35.07;17.77;;;9.90;99.90;;;;;;5020289;28;20185;-57
2021/11/16 06:37:49;;;;;;;30.20;17.07;;;9.70;99.90;;;;;;5020317;28;20677;-58
2021/11/16 06:40:17;;;;;;;32.67;19.10;;;9.60;99.90;;;;;;5016619;28;20259;-58
2021/11/16 06:42:43;;;;;;;31.63;17.33;;;9.80;99.90;;;;;;5018410;28;20462;-58
2021/11/16 06:45:09;;;;;;;30.63;17.37;;;10.00;99.90;;;;;;5015241;28;20458;-59
2021/11/16 06:47:34;;;;;;;34.97;18.23;;;9.50;99.90;;;;;;5019309;28;20470;-56
2021/11/16 06:50:00;;;;;;;35.30;18.63;;;9.40;99.90;;;;;;5022563;28;20513;-55
2021/11/16 06:52:30;;;;;;;35.57;19.37;;;9.40;99.90;;;;;;5020809;28;20305;-54
2021/11/16 06:54:55;;;;;;;30.50;17.67;;;9.70;99.90;;;;;;5022693;28;20443;-57
2021/11/16 06:57:26;;;;;;;33.40;17.47;;;9.70;99.90;;;;;;5022047;28;21151;-56
2021/11/16 06:59:51;;;;;;;32.30;19.07;;;9.60;99.90;;;;;;5021464;28;20646;-55
2021/11/16 07:02:22;;;;;;;33.33;20.10;;;9.90;99.90;;;;;;5024325;28;20442;-56
2021/11/16 07:04:48;;;;;;;37.30;18.77;;;9.80;99.90;;;;;;5019857;28;20260;-56
2021/11/16 07:07:14;;;;;;;34.50;20.23;;;9.80;99.90;;;;;;5021154;28;20783;-57
2021/11/16 07:09:41;;;;;;;33.77;18.47;;;9.40;99.90;;;;;;5020509;28;20468;-53
2021/11/16 07:12:17;;;;;;;42.40;19.77;;;9.50;99.90;;;;;;5020550;28;20555;-56
2021/11/16 07:14:44;;;;;;;33.53;19.80;;;9.60;99.90;;;;;;5023046;28;20423;-53
2021/11/16 07:17:13;;;;;;;35.27;17.70;;;9.80;99.90;;;;;;5021729;28;20982;-57
2021/11/16 07:19:46;;;;;;;38.33;19.90;;;9.90;99.90;;;;;;5020275;28;20432;-57
2021/11/16 07:22:21;;;;;;;34.33;17.57;;;10.00;99.90;;;;;;5045055;22;20498;-54
2021/11/16 07:24:49;;;;;;;31.00;17.20;;;10.10;99.90;;;;;;5039924;28;20426;-51
2021/11/16 07:27:18;;;;;;;35.20;18.23;;;10.20;99.90;;;;;;5040882;28;20449;-51
2021/11/16 07:29:55;;;;;;;30.40;17.07;;;10.10;99.90;;;;;;5040472;28;20458;-47
2021/11/16 07:32:30;;;;;;;36.77;18.53;;;10.30;99.90;;;;;;5037007;28;20527;-50
2021/11/16 07:34:59;;;;;;;30.13;17.53;;;10.30;99.90;;;;;;5033180;28;20434;-51
2021/11/16 07:37:27;;;;;;;31.40;17.83;;;10.30;99.90;;;;;;5036340;28;20522;-49
2021/11/16 07:39:59;;;;;;;35.07;18.97;;;10.10;99.90;;;;;;5035418;28;20809;-48
2021/11/16 07:42:31;;;;;;;40.23;20.40;;;10.00;99.90;;;;;;5035611;28;20580;-53
2021/11/16 07:45:14;;;;;;;39.33;19.00;;;10.10;99.90;;;;;;5032328;28;20446;-49
2021/11/16 07:47:46;;;;;;;28.93;16.90;;;10.00;99.90;;;;;;5036330;28;20449;-48
2021/11/16 07:50:19;;;;;;;35.27;17.97;;;10.20;99.90;;;;;;5037144;28;20452;-51
2021/11/16 07:52:47;;;;;;;31.60;20.80;;;10.20;99.90;;;;;;5036129;28;20489;-47
2021/11/16 07:55:23;;;;;;;35.50;19.53;;;10.10;99.90;;;;;;5036287;28;20445;-48
2021/11/16 07:57:50;;;;;;;37.90;21.57;;;9.90;99.90;;;;;;5033606;28;20433;-47
2021/11/16 08:00:24;;;;;;;37.73;21.17;;;9.80;99.90;;;;;;5032664;28;20487;-49
2021/11/16 08:02:57;;;;;;;39.03;20.87;;;9.70;99.90;;;;;;5040006;28;20467;-51
2021/11/16 08:05:33;;;;;;;43.17;20.40;;;9.80;99.90;;;;;;5032707;28;20574;-50
2021/11/16 08:09:16;;;;;;;44.23;22.90;;;9.70;99.90;;;;;;5033956;28;20449;-48
2021/11/16 08:11:17;;;;;;;33.43;20.67;;;9.80;99.90;;;;;;5017791;28;20901;-50
2021/11/16 08:14:01;;;;;;;36.00;19.23;;;9.60;99.90;;;;;;5034290;28;20544;-49
2021/11/16 08:16:28;;;;;;;31.63;19.27;;;9.70;99.90;;;;;;5033101;28;21030;-51
2021/11/16 08:18:59;;;;;;;33.70;19.83;;;9.90;99.90;;;;;;5032255;28;20468;-51
2021/11/16 08:21:27;;;;;;;41.50;20.53;;;9.80;99.90;;;;;;5034976;28;20964;-53
2021/11/16 08:24:00;;;;;;;32.93;19.07;;;9.90;99.90;;;;;;5035458;28;20458;-52
2021/11/16 08:26:34;;;;;;;38.43;18.80;;;9.90;99.90;;;;;;5033041;28;20979;-52
2021/11/16 08:29:01;;;;;;;39.67;19.90;;;9.90;99.90;;;;;;5029507;28;20447;-54
2021/11/16 08:31:34;;;;;;;35.40;19.10;;;9.80;99.90;;;;;;5029494;28;20531;-49
2021/11/16 08:33:59;;;;;;;38.33;19.13;;;9.70;99.90;;;;;;5031756;28;20783;-50
2021/11/16 08:36:28;;;;;;;38.90;21.10;;;9.70;99.90;;;;;;5036695;28;20450;-49
2021/11/16 08:38:57;;;;;;;34.97;19.53;;;9.70;99.90;;;;;;5034895;28;20315;-52
2021/11/16 08:41:30;;;;;;;31.10;19.03;;;9.80;99.90;;;;;;5031658;28;21609;-54
2021/11/16 08:44:31;;;;;;;38.73;20.53;;;10.00;99.90;;;;;;5034351;28;20439;-49
2021/11/16 08:47:06;;;;;;;37.73;20.30;;;10.20;99.90;;;;;;5018881;28;20451;-54
2021/11/16 08:49:33;;;;;;;37.07;22.30;;;10.30;99.90;;;;;;5030110;28;20439;-49
2021/11/16 08:52:03;;;;;;;37.23;20.17;;;9.90;99.90;;;;;;5032389;28;20554;-52
2021/11/16 08:54:37;;;;;;;33.70;20.17;;;9.70;99.90;;;;;;5035432;28;20533;-52
2021/11/16 08:57:14;;;;;;;34.40;20.10;;;9.90;99.90;;;;;;5031849;28;20899;-51
2021/11/16 08:59:40;;;;;;;32.87;18.33;;;10.10;99.90;;;;;;5034218;28;20442;-53
2021/11/16 09:02:07;;;;;;;35.13;19.30;;;10.20;99.90;;;;;;5036363;28;20516;-51
2021/11/16 09:04:36;;;;;;;32.83;18.73;;;10.20;99.90;;;;;;5036159;28;20633;-49
2021/11/16 09:07:17;;;;;;;31.57;17.40;;;10.00;99.90;;;;;;5035204;28;20815;-52
2021/11/16 09:10:04;;;;;;;33.27;18.17;;;9.80;99.90;;;;;;5036486;28;20831;-49
2021/11/16 09:12:52;;;;;;;30.53;18.20;;;9.90;99.90;;;;;;5032524;28;20481;-50
2021/11/16 09:15:54;;;;;;;35.87;19.40;;;10.00;99.90;;;;;;5031666;28;20436;-50
2021/11/16 09:18:29;;;;;;;36.20;18.83;;;9.90;99.90;;;;;;5014346;28;20473;-51
2021/11/16 09:21:02;;;;;;;33.60;17.87;;;9.90;99.90;;;;;;5029346;28;20437;-54
2021/11/16 09:23:48;;;;;;;33.27;19.10;;;9.80;99.90;;;;;;5029930;28;20565;-50
2021/11/16 09:26:19;;;;;;;35.63;18.83;;;9.80;99.90;;;;;;5031456;28;20438;-51
2021/11/16 09:28:48;;;;;;;34.43;19.80;;;9.90;99.90;;;;;;5031522;28;20449;-52
2021/11/16 09:31:17;;;;;;;38.90;21.43;;;9.90;99.90;;;;;;5031182;28;20885;-54
2021/11/16 09:33:43;;;;;;;32.70;18.17;;;10.00;99.90;;;;;;5029762;28;20797;-50
2021/11/16 09:36:09;;;;;;;37.73;19.20;;;9.80;99.90;;;;;;5028760;28;20462;-52
2021/11/16 09:38:48;;;;;;;37.67;18.67;;;9.80;99.90;;;;;;5035428;28;20982;-52
2021/11/16 09:41:30;;;;;;;33.27;19.23;;;9.90;99.90;;;;;;5032582;28;20508;-52
2021/11/16 09:44:06;;;;;;;38.67;20.40;;;9.60;99.90;;;;;;5032073;28;20446;-54
2021/11/16 09:46:43;;;;;;;34.13;18.53;;;9.70;99.90;;;;;;5029845;28;20509;-52
2021/11/16 09:49:13;;;;;;;31.73;18.27;;;9.50;99.90;;;;;;5027550;28;20445;-51
2021/11/16 09:51:41;;;;;;;27.37;16.70;;;9.50;99.90;;;;;;5032404;28;21305;-49
2021/11/16 09:54:08;;;;;;;35.77;20.40;;;9.40;99.90;;;;;;5029118;28;20682;-50
2021/11/16 09:56:35;;;;;;;33.30;18.43;;;9.30;99.90;;;;;;5030195;28;20434;-52
2021/11/16 09:59:01;;;;;;;34.10;18.80;;;9.30;99.90;;;;;;5033156;28;20446;-49
2021/11/16 10:01:32;;;;;;;35.47;19.23;;;9.40;99.90;;;;;;5033932;28;20446;-53
2021/11/16 10:04:23;;;;;;;34.87;18.60;;;9.40;99.90;;;;;;5035240;28;20473;-52
2021/11/16 10:06:49;;;;;;;38.57;20.93;;;9.30;99.90;;;;;;5032293;28;20477;-51
2021/11/16 10:09:15;;;;;;;37.17;20.00;;;9.20;99.90;;;;;;5037611;28;20469;-49
2021/11/16 10:11:44;;;;;;;29.73;18.23;;;9.40;99.90;;;;;;5033868;28;20327;-50
2021/11/16 10:14:19;;;;;;;35.30;19.60;;;9.60;99.90;;;;;;5030951;28;20431;-52
2021/11/16 10:16:46;;;;;;;35.73;20.57;;;9.80;99.90;;;;;;5032880;28;20457;-53
2021/11/16 10:19:12;;;;;;;31.50;18.97;;;9.80;99.90;;;;;;5031969;28;20438;-48
2021/11/16 10:21:39;;;;;;;31.40;19.47;;;9.90;99.90;;;;;;5038139;28;21000;-51
2021/11/16 10:24:31;;;;;;;31.33;18.77;;;9.90;99.90;;;;;;5036131;28;20438;-52
2021/11/16 10:27:02;;;;;;;35.93;18.10;;;10.00;99.90;;;;;;5037319;28;20442;-53
2021/11/16 10:29:28;;;;;;;30.43;17.43;;;9.80;99.90;;;;;;5035118;28;20981;-49
2021/11/16 10:31:53;;;;;;;28.60;16.27;;;9.80;99.90;;;;;;5036500;28;20536;-52
2021/11/16 10:34:36;;;;;;;34.30;17.73;;;9.50;99.90;;;;;;5036824;28;20645;-52
2021/11/16 10:37:05;;;;;;;33.27;18.77;;;9.30;99.90;;;;;;5036695;28;20472;-53
2021/11/16 10:39:30;;;;;;;31.87;19.00;;;9.30;99.90;;;;;;5036015;28;20450;-51
2021/11/16 10:41:56;;;;;;;31.83;19.23;;;9.30;99.90;;;;;;5036117;28;20858;-51
2021/11/16 10:44:23;;;;;;;34.30;18.80;;;9.30;99.90;;;;;;5035702;28;20193;-53
2021/11/16 10:46:49;;;;;;;33.13;18.23;;;9.10;99.90;;;;;;5036956;28;20201;-49
2021/11/16 10:49:20;;;;;;;32.00;18.03;;;9.10;99.90;;;;;;5034680;28;20911;-53
2021/11/16 10:51:47;;;;;;;37.10;18.20;;;9.00;99.90;;;;;;5031290;28;20210;-51
2021/11/16 10:54:14;;;;;;;37.63;18.33;;;9.00;99.90;;;;;;5038937;28;21016;-52
2021/11/16 10:56:42;;;;;;;36.97;19.43;;;9.00;99.90;;;;;;5030957;28;20470;-51
2021/11/16 10:59:17;;;;;;;32.93;17.67;;;9.10;99.90;;;;;;5037552;28;20805;-52
2021/11/16 11:01:47;;;;;;;31.23;17.87;;;9.00;99.90;;;;;;5036376;28;20557;-53
2021/11/16 11:04:19;;;;;;;35.20;17.97;;;9.10;99.90;;;;;;5037700;28;20468;-50
2021/11/16 11:06:49;;;;;;;37.63;19.43;;;9.10;99.90;;;;;;5035966;28;20456;-51
2021/11/16 11:09:16;;;;;;;28.60;16.57;;;9.20;99.90;;;;;;5035321;28;20538;-50
2021/11/16 11:11:47;;;;;;;33.20;18.30;;;9.20;99.90;;;;;;5034221;28;20520;-52
2021/11/16 11:14:21;;;;;;;32.70;18.10;;;9.10;99.90;;;;;;5036462;28;20451;-53
2021/11/16 11:16:57;;;;;;;35.47;17.70;;;8.90;99.90;;;;;;5036149;28;20430;-52
2021/11/16 11:19:28;;;;;;;32.30;18.27;;;9.20;99.90;;;;;;5034258;28;20477;-50
2021/11/16 11:22:19;;;;;;;32.80;18.20;;;9.30;99.90;;;;;;5037875;28;20834;-51
2021/11/16 11:24:54;;;;;;;32.00;17.60;;;9.30;99.90;;;;;;5030036;28;20843;-48
2021/11/16 11:27:33;;;;;;;30.03;17.17;;;9.40;99.90;;;;;;5033597;28;20446;-54
2021/11/16 11:30:00;;;;;;;35.13;18.80;;;9.10;99.90;;;;;;5036920;28;20967;-51
2021/11/16 11:32:37;;;;;;;32.77;17.43;;;9.20;99.90;;;;;;5032595;28;20479;-52
2021/11/16 11:35:13;;;;;;;33.40;18.30;;;9.00;99.90;;;;;;5033692;28;20939;-53
2021/11/16 11:37:54;;;;;;;32.93;19.93;;;9.20;99.90;;;;;;5035515;28;20533;-53
2021/11/16 11:40:21;;;;;;;31.40;18.70;;;9.20;99.90;;;;;;5035473;28;20458;-54
2021/11/16 11:42:52;;;;;;;32.67;18.63;;;9.30;99.90;;;;;;5036981;28;20556;-52
2021/11/16 11:45:24;;;;;;;35.53;19.60;;;9.20;99.90;;;;;;5037221;28;21019;-49
2021/11/16 11:47:59;;;;;;;40.60;19.90;;;9.30;99.90;;;;;;5035512;28;20499;-50
2021/11/16 11:50:35;;;;;;;33.63;18.40;;;9.30;99.90;;;;;;5035298;28;20473;-49
2021/11/16 11:53:04;;;;;;;33.57;17.53;;;9.40;99.90;;;;;;5037533;28;21125;-54
2021/11/16 11:55:34;;;;;;;34.00;19.77;;;9.50;99.90;;;;;;5032892;28;20430;-51
2021/11/16 11:58:03;;;;;;;31.60;19.33;;;9.50;99.90;;;;;;5036136;28;20999;-51
2021/11/16 12:00:29;;;;;;;32.73;19.37;;;9.40;99.90;;;;;;5036725;28;20501;-51
2021/11/16 12:02:56;;;;;;;37.70;19.93;;;9.40;99.90;;;;;;5035922;28;20459;-53
2021/11/16 12:05:28;;;;;;;33.77;20.73;;;9.20;99.90;;;;;;5037219;28;20439;-54
2021/11/16 12:07:54;;;;;;;37.37;18.80;;;9.10;99.90;;;;;;5033575;28;20435;-54
2021/11/16 12:10:20;;;;;;;36.53;18.90;;;9.30;99.90;;;;;;5035328;28;20435;-53
2021/11/16 12:12:46;;;;;;;34.83;20.43;;;9.60;99.90;;;;;;5034736;28;20494;-54
2021/11/16 12:15:20;;;;;;;35.13;20.03;;;9.60;99.90;;;;;;5031914;28;21199;-55
2021/11/16 12:17:52;;;;;;;36.37;19.00;;;9.50;99.90;;;;;;5034150;28;20196;-49
2021/11/16 12:20:39;;;;;;;30.80;17.53;;;9.40;99.90;;;;;;5035683;28;20458;-53
2021/11/16 12:23:07;;;;;;;28.87;17.03;;;9.50;99.90;;;;;;5034009;28;20465;-54
2021/11/16 12:25:33;;;;;;;36.37;19.10;;;9.60;99.90;;;;;;5038797;28;20435;-50
2021/11/16 12:27:59;;;;;;;31.43;18.20;;;9.30;99.90;;;;;;5032811;28;21258;-51
2021/11/16 12:30:37;;;;;;;33.43;19.93;;;9.50;99.90;;;;;;5032834;28;20605;-54
2021/11/16 12:33:05;;;;;;;31.57;17.37;;;9.50;99.90;;;;;;5034296;28;20462;-55
2021/11/16 12:35:31;;;;;;;30.53;18.50;;;9.40;99.90;;;;;;5035473;28;20449;-54
2021/11/16 12:37:59;;;;;;;32.23;17.23;;;9.30;99.90;;;;;;5032684;28;20435;-52
2021/11/16 12:40:31;;;;;;;31.83;17.90;;;9.30;99.90;;;;;;5035092;28;20438;-56
2021/11/16 12:43:20;;;;;;;34.83;19.47;;;9.30;99.90;;;;;;5032147;28;20545;-52
2021/11/16 12:45:50;;;;;;;32.40;18.50;;;9.40;99.90;;;;;;5032870;28;20549;-50
2021/11/16 12:48:38;;;;;;;32.50;16.77;;;9.40;99.90;;;;;;5040002;28;21141;-54
2021/11/16 12:51:13;;;;;;;28.57;17.90;;;9.60;99.90;;;;;;5036000;28;20457;-52
2021/11/16 12:54:02;;;;;;;30.00;17.43;;;9.90;99.90;;;;;;5038241;28;21062;-51
2021/11/16 12:56:43;;;;;;;27.60;17.63;;;10.00;99.90;;;;;;5032206;28;20498;-56